Time;durP1;ratioP1;P1;durP2;ratioP2;P2;SDS_P1;SDS_P2;PMS_P1;PMS_P2;Temp;Humidity;BMP_temperature;BMP_pressure;BME280_temperature;BME280_humidity;BME280_pressure;Samples;Min_cycle;Max_cycle;Signal;HPM_P1;HPM_P2
2022/02/28 00:02:11;;;;;;;;;;;;;;;0.66;38.61;93741.31;2050332;69;20148;-77
2022/02/28 00:04:36;;;;;;;;;;;;;;;0.49;39.83;93755.34;2065043;69;20096;-76
2022/02/28 00:07:02;;;;;;;;;;;;;;;0.41;39.32;93749.66;2051276;70;20082;-75
2022/02/28 00:09:28;;;;;;;;;;;;;;;0.45;40.09;93750.09;2051340;69;20079;-77
2022/02/28 00:11:54;;;;;;;;;;;;;;;0.52;39.55;93748.03;2050900;69;20197;-77
2022/02/28 00:14:23;;;;;;;;;;;;;;;0.72;39.31;93748.28;2051707;69;20114;-77
2022/02/28 00:16:49;;;;;;;;;;;;;;;0.53;39.57;93749.53;2051706;69;20049;-72
2022/02/28 00:19:14;;;;;;;;;;;;;;;0.64;39.42;93752.94;2051014;69;20042;-74
2022/02/28 00:21:40;;;;;;;;;;;;;;;0.64;39.28;93738.28;2050351;69;20643;-72
2022/02/28 00:24:05;;;;;;;;;;;;;;;0.57;39.66;93745.19;2051441;69;20057;-73
2022/02/28 00:26:31;;;;;;;;;;;;;;;0.65;39.96;93748.88;2050793;69;20081;-76
2022/02/28 00:28:56;;;;;;;;;;;;;;;0.61;39.77;93739.34;2062248;69;20464;-74
2022/02/28 00:31:22;;;;;;;;;;;;;;;0.77;39.17;93739.16;2051050;69;20178;-72
2022/02/28 00:33:47;;;;;;;;;;;;;;;0.71;39.21;93732.19;2051413;69;20092;-71
2022/02/28 00:36:14;;;;;;;;;;;;;;;0.75;39.18;93727.84;2064450;69;20057;-75
2022/02/28 00:38:40;;;;;;;;;;;;;;;0.71;39.64;93726.63;2064619;69;20074;-77
2022/02/28 00:41:06;;;;;;;;;;;;;;;0.41;39.25;93721.94;2050954;70;20529;-73
2022/02/28 00:43:31;;;;;;;;;;;;;;;0.58;38.77;93729.31;2050969;69;20102;-74
2022/02/28 00:45:57;;;;;;;;;;;;;;;0.49;39.83;93727.63;2051677;70;20085;-70
2022/02/28 00:48:22;;;;;;;;;;;;;;;0.47;39.57;93728.16;2063348;69;20068;-72
2022/02/28 00:50:50;;;;;;;;;;;;;;;0.46;39.52;93725.94;2051650;69;20093;-72
2022/02/28 00:53:16;;;;;;;;;;;;;;;0.36;38.92;93727.53;2050908;69;20047;-71
2022/02/28 00:55:42;;;;;;;;;;;;;;;0.30;39.43;93724.81;2064099;69;20046;-69
2022/02/28 00:58:12;;;;;;;;;;;;;;;0.21;38.31;93720.38;2049825;69;20171;-70
2022/02/28 01:00:37;;;;;;;;;;;;;;;0.19;38.22;93714.63;2060984;69;20038;-73
2022/02/28 01:03:03;;;;;;;;;;;;;;;0.23;39.41;93715.06;2049376;69;20098;-68
2022/02/28 01:05:28;;;;;;;;;;;;;;;0.31;39.15;93720.78;2050864;69;20066;-73
2022/02/28 01:07:55;;;;;;;;;;;;;;;0.21;39.05;93722.38;2063086;69;20078;-69
2022/02/28 01:10:22;;;;;;;;;;;;;;;0.08;39.70;93713.97;2049366;69;20181;-70
2022/02/28 01:12:50;;;;;;;;;;;;;;;0.26;39.30;93721.59;2049124;69;20042;-72
2022/02/28 01:15:17;;;;;;;;;;;;;;;0.22;38.50;93721.84;2049635;69;20057;-72
2022/02/28 01:17:44;;;;;;;;;;;;;;;0.20;38.58;93723.66;2062771;69;20119;-72
2022/02/28 01:20:10;;;;;;;;;;;;;;;0.20;39.09;93718.13;2064483;69;20447;-76
2022/02/28 01:22:36;;;;;;;;;;;;;;;0.08;39.27;93711.94;2063510;69;20530;-72
2022/02/28 01:25:02;;;;;;;;;;;;;;;-0.15;41.09;93708.63;2049857;70;20050;-72
2022/02/28 01:27:27;;;;;;;;;;;;;;;-0.17;40.88;93719.47;2063861;69;20057;-71
2022/02/28 01:29:54;;;;;;;;;;;;;;;-0.23;40.90;93720.78;2051169;69;20049;-70
2022/02/28 01:32:20;;;;;;;;;;;;;;;-0.06;40.49;93715.84;2051181;69;20128;-71
2022/02/28 01:34:46;;;;;;;;;;;;;;;-0.28;41.30;93720.31;2064425;69;20082;-71
2022/02/28 01:37:11;;;;;;;;;;;;;;;-0.33;41.25;93718.34;2062998;69;20462;-71
2022/02/28 01:39:40;;;;;;;;;;;;;;;-0.32;42.18;93710.78;2050881;69;20082;-72
2022/02/28 01:42:06;;;;;;;;;;;;;;;0.03;39.52;93715.50;2062743;69;20134;-70
2022/02/28 01:44:32;;;;;;;;;;;;;;;0.23;39.02;93714.31;2064158;69;20086;-69
2022/02/28 01:47:00;;;;;;;;;;;;;;;0.18;39.15;93713.13;2063817;69;20054;-76
2022/02/28 01:49:26;;;;;;;;;;;;;;;-0.02;38.68;93700.44;2051191;69;20590;-75
2022/02/28 01:51:52;;;;;;;;;;;;;;;0.04;38.63;93705.19;2063704;69;20076;-73
2022/02/28 01:54:17;;;;;;;;;;;;;;;-0.06;38.85;93699.25;2063949;69;20405;-71
2022/02/28 01:56:43;;;;;;;;;;;;;;;0.01;39.02;93704.22;2063836;69;20051;-72
2022/02/28 01:59:09;;;;;;;;;;;;;;;0.04;38.54;93699.66;2064244;69;20105;-73
2022/02/28 02:01:34;;;;;;;;;;;;;;;-0.01;38.19;93701.94;2063540;69;20111;-73
2022/02/28 02:04:04;;;;;;;;;;;;;;;-0.08;38.26;93687.94;2060058;69;20051;-76
2022/02/28 02:06:33;;;;;;;;;;;;;;;-0.13;38.69;93691.53;2051880;70;20123;-72
2022/02/28 02:08:59;;;;;;;;;;;;;;;-0.43;38.69;93689.50;2051123;69;20406;-69
2022/02/28 02:11:24;;;;;;;;;;;;;;;-0.15;38.52;93689.25;2062018;69;20119;-72
2022/02/28 02:13:50;;;;;;;;;;;;;;;-0.54;38.61;93686.81;2059537;69;20516;-71
2022/02/28 02:16:16;;;;;;;;;;;;;;;-0.23;38.50;93687.56;2051199;70;20096;-71
2022/02/28 02:18:42;;;;;;;;;;;;;;;-0.13;38.30;93692.25;2050614;69;20066;-70
2022/02/28 02:21:07;;;;;;;;;;;;;;;-0.05;38.43;93690.41;2051336;70;20502;-71
2022/02/28 02:23:33;;;;;;;;;;;;;;;-0.18;39.33;93690.31;2050561;69;20510;-71
2022/02/28 02:25:59;;;;;;;;;;;;;;;-0.16;38.78;93693.28;2050253;69;20053;-70
2022/02/28 02:28:27;;;;;;;;;;;;;;;-0.23;38.41;93693.84;2051682;69;20061;-71
2022/02/28 02:30:53;;;;;;;;;;;;;;;-0.29;39.07;93701.44;2051071;69;20058;-70
2022/02/28 02:33:20;;;;;;;;;;;;;;;-0.45;39.39;93694.06;2050419;69;20084;-70
2022/02/28 02:35:59;;;;;;;;;;;;;;;-0.45;39.74;93694.06;2064318;69;20062;-72
2022/02/28 02:38:26;;;;;;;;;;;;;;;-0.41;39.89;93697.28;2051389;69;20090;-71
2022/02/28 02:40:56;;;;;;;;;;;;;;;-0.59;40.80;93693.16;2050254;69;20183;-73
2022/02/28 02:43:21;;;;;;;;;;;;;;;-0.39;39.82;93691.97;2050709;69;20492;-74
2022/02/28 02:45:47;;;;;;;;;;;;;;;-0.47;39.93;93688.28;2050742;70;20050;-70
2022/02/28 02:48:17;;;;;;;;;;;;;;;-0.41;39.28;93691.72;2061282;69;20200;-69
2022/02/28 02:50:45;;;;;;;;;;;;;;;-0.43;39.46;93694.28;2063867;69;20077;-70
2022/02/28 02:53:11;;;;;;;;;;;;;;;-0.31;39.75;93688.16;2063637;69;20165;-69
2022/02/28 02:55:37;;;;;;;;;;;;;;;-0.30;39.44;93692.41;2060850;69;20086;-70
2022/02/28 02:58:03;;;;;;;;;;;;;;;-0.58;39.95;93683.59;2062066;69;20454;-70
2022/02/28 03:00:29;;;;;;;;;;;;;;;-0.73;40.35;93695.00;2050330;69;20090;-72
2022/02/28 03:03:00;;;;;;;;;;;;;;;-0.58;40.39;93700.19;2063254;69;20082;-74
2022/02/28 03:05:26;;;;;;;;;;;;;;;-0.45;40.17;93697.56;2064397;69;20054;-78
2022/02/28 03:07:52;;;;;;;;;;;;;;;-0.63;40.79;93707.25;2065101;69;20730;-78
2022/02/28 03:10:17;;;;;;;;;;;;;;;-0.59;40.46;93698.69;2051479;69;20125;-75
2022/02/28 03:12:43;;;;;;;;;;;;;;;-0.79;41.86;93708.84;2056863;69;20201;-71
2022/02/28 03:15:10;;;;;;;;;;;;;;;-0.89;42.22;93707.66;2064507;69;20098;-76
2022/02/28 03:17:36;;;;;;;;;;;;;;;-0.94;42.33;93708.47;2065047;69;20047;-75
2022/02/28 03:20:01;;;;;;;;;;;;;;;-0.88;42.21;93705.66;2062466;69;20120;-72
2022/02/28 03:22:28;;;;;;;;;;;;;;;-0.93;41.85;93696.13;2063888;69;20061;-70
2022/02/28 03:24:53;;;;;;;;;;;;;;;-1.12;43.62;93698.75;2064812;69;20046;-70
2022/02/28 03:27:19;;;;;;;;;;;;;;;-1.02;43.26;93693.69;2062178;69;20157;-71
2022/02/28 03:29:47;;;;;;;;;;;;;;;-1.11;43.86;93691.22;2063695;69;20120;-71
2022/02/28 03:32:12;;;;;;;;;;;;;;;-0.97;42.67;93703.94;2064136;69;20058;-70
2022/02/28 03:34:38;;;;;;;;;;;;;;;-0.75;41.10;93694.75;2064770;69;20050;-71
2022/02/28 03:37:05;;;;;;;;;;;;;;;-0.59;40.30;93702.19;2061816;69;20456;-72
2022/02/28 03:39:30;;;;;;;;;;;;;;;-0.65;39.70;93700.72;2062840;69;20097;-71
2022/02/28 03:41:56;;;;;;;;;;;;;;;-0.65;39.92;93698.72;2062263;69;20092;-78
2022/02/28 03:44:23;;;;;;;;;;;;;;;-0.72;39.75;93701.28;2064377;69;20051;-71
2022/02/28 03:46:52;;;;;;;;;;;;;;;-0.68;40.13;93705.28;2063080;69;20058;-72
2022/02/28 03:49:24;;;;;;;;;;;;;;;-0.66;40.09;93702.75;2063414;69;20050;-74
2022/02/28 03:51:58;;;;;;;;;;;;;;;-0.64;40.32;93705.75;2063807;69;20054;-74
2022/02/28 03:54:53;;;;;;;;;;;;;;;-0.66;39.91;93708.28;2052413;69;20163;-72
2022/02/28 03:57:19;;;;;;;;;;;;;;;-1.04;39.73;93710.03;2063617;69;20511;-70
2022/02/28 03:59:44;;;;;;;;;;;;;;;-0.64;39.11;93707.75;2051344;69;20099;-71
2022/02/28 04:02:10;;;;;;;;;;;;;;;-0.91;39.00;93707.44;2062421;69;20100;-69
2022/02/28 04:04:41;;;;;;;;;;;;;;;-0.79;39.38;93713.63;2063307;69;20086;-73
2022/02/28 04:07:06;;;;;;;;;;;;;;;-0.83;38.96;93713.91;2063352;69;20493;-70
2022/02/28 04:09:36;;;;;;;;;;;;;;;-0.67;39.23;93717.84;2050674;69;20144;-69
2022/02/28 04:12:04;;;;;;;;;;;;;;;-0.90;39.56;93710.97;2064100;69;20047;-70
2022/02/28 04:14:30;;;;;;;;;;;;;;;-0.79;39.51;93708.84;2063936;69;20062;-74
2022/02/28 04:16:56;;;;;;;;;;;;;;;-0.58;39.02;93708.47;2063526;69;20054;-74
2022/02/28 04:19:39;;;;;;;;;;;;;;;-0.79;39.77;93714.38;2051203;70;20086;-72
2022/02/28 04:22:06;;;;;;;;;;;;;;;-0.99;40.33;93716.78;2064398;69;20105;-72
2022/02/28 04:24:34;;;;;;;;;;;;;;;-0.94;41.02;93711.22;2063515;69;20142;-74
2022/02/28 04:27:00;;;;;;;;;;;;;;;-0.97;40.63;93709.47;2061897;69;20189;-68
2022/02/28 04:29:26;;;;;;;;;;;;;;;-1.06;40.88;93705.00;2064271;69;20492;-68
2022/02/28 04:32:01;;;;;;;;;;;;;;;-1.18;41.92;93708.34;2063220;69;20183;-72
2022/02/28 04:34:28;;;;;;;;;;;;;;;-0.97;40.63;93698.41;2064476;69;20138;-73
2022/02/28 04:36:53;;;;;;;;;;;;;;;-1.03;40.63;93708.75;2051529;69;20142;-73
2022/02/28 04:39:19;;;;;;;;;;;;;;;-0.99;40.72;93703.72;2064250;69;20080;-73
2022/02/28 04:41:45;;;;;;;;;;;;;;;-1.02;40.66;93708.25;2061972;69;20093;-69
2022/02/28 04:44:11;;;;;;;;;;;;;;;-0.81;40.41;93703.09;2064846;69;20454;-70
2022/02/28 04:46:37;;;;;;;;;;;;;;;-1.09;40.54;93700.50;2064313;69;20097;-70
2022/02/28 04:49:22;;;;;;;;;;;;;;;-1.12;40.40;93700.78;2051219;69;20049;-69
2022/02/28 04:51:54;;;;;;;;;;;;;;;-1.24;40.76;93702.09;2063428;69;20474;-69
2022/02/28 04:54:19;;;;;;;;;;;;;;;-1.19;40.55;93704.06;2064421;69;20093;-70
2022/02/28 04:56:45;;;;;;;;;;;;;;;-1.21;41.17;93703.84;2061985;69;20053;-70
2022/02/28 04:59:10;;;;;;;;;;;;;;;-1.21;42.08;93703.84;2063940;69;20347;-68
2022/02/28 05:01:42;;;;;;;;;;;;;;;-1.33;42.72;93709.44;2061480;69;20160;-72
2022/02/28 05:04:26;;;;;;;;;;;;;;;-1.44;42.65;93714.97;2051469;69;20053;-69
2022/02/28 05:06:52;;;;;;;;;;;;;;;-1.60;43.10;93707.53;2063767;69;20070;-70
2022/02/28 05:09:18;;;;;;;;;;;;;;;-1.36;42.76;93712.44;2063466;69;20054;-69
2022/02/28 05:11:43;;;;;;;;;;;;;;;-1.41;42.50;93707.69;2063152;69;20062;-70
2022/02/28 05:14:09;;;;;;;;;;;;;;;-1.42;42.71;93709.72;2064393;69;20153;-74
2022/02/28 05:16:35;;;;;;;;;;;;;;;-1.73;44.50;93710.06;2063228;69;20138;-73
2022/02/28 05:19:00;;;;;;;;;;;;;;;-1.32;41.86;93719.22;2063819;69;20113;-69
2022/02/28 05:21:27;;;;;;;;;;;;;;;-1.46;43.68;93719.53;2059929;69;20496;-69
2022/02/28 05:23:52;;;;;;;;;;;;;;;-1.66;44.55;93715.06;2064706;69;20050;-69
2022/02/28 05:26:18;;;;;;;;;;;;;;;-1.64;44.29;93720.84;2061341;69;20455;-70
2022/02/28 05:28:43;;;;;;;;;;;;;;;-1.71;44.60;93715.81;2051000;69;20101;-70
2022/02/28 05:31:10;;;;;;;;;;;;;;;-1.75;45.76;93723.63;2064433;69;20090;-70
2022/02/28 05:33:36;;;;;;;;;;;;;;;-1.76;45.54;93722.88;2064058;69;20409;-70
2022/02/28 05:36:02;;;;;;;;;;;;;;;-1.76;44.78;93739.44;2064660;69;20113;-71
2022/02/28 05:38:33;;;;;;;;;;;;;;;-1.85;45.45;93737.69;2062937;69;20436;-69
2022/02/28 05:41:03;;;;;;;;;;;;;;;-1.81;45.27;93735.44;2061260;69;20405;-70
2022/02/28 05:43:34;;;;;;;;;;;;;;;-1.96;45.15;93743.25;2063460;69;20469;-73
2022/02/28 05:46:01;;;;;;;;;;;;;;;-1.86;45.61;93741.72;2064189;69;20062;-72
2022/02/28 05:48:38;;;;;;;;;;;;;;;-1.87;44.64;93748.50;2060594;69;20061;-74
2022/02/28 05:51:05;;;;;;;;;;;;;;;-1.95;45.82;93752.28;2063174;69;20058;-71
2022/02/28 05:53:31;;;;;;;;;;;;;;;-1.98;45.83;93750.53;2051201;70;20155;-71
2022/02/28 05:55:56;;;;;;;;;;;;;;;-2.03;45.52;93749.28;2050783;69;20137;-70
2022/02/28 05:58:22;;;;;;;;;;;;;;;-2.02;46.50;93750.03;2051049;69;20074;-69
2022/02/28 06:00:47;;;;;;;;;;;;;;;-2.02;46.66;93750.75;2050723;69;20049;-69
2022/02/28 06:03:13;;;;;;;;;;;;;;;-2.05;46.60;93760.81;2050780;69;20049;-69
2022/02/28 06:05:38;;;;;;;;;;;;;;;-2.18;47.54;93757.06;2051332;69;20491;-73
2022/02/28 06:08:04;;;;;;;;;;;;;;;-2.11;46.94;93762.06;2051094;70;20093;-69
2022/02/28 06:10:29;;;;;;;;;;;;;;;-2.17;47.92;93761.31;2051218;69;20057;-71
2022/02/28 06:12:55;;;;;;;;;;;;;;;-2.10;47.49;93771.88;2051241;69;20555;-70
2022/02/28 06:15:20;;;;;;;;;;;;;;;-2.25;47.63;93774.88;2064266;69;20083;-69
2022/02/28 06:17:45;;;;;;;;;;;;;;;-2.12;47.38;93772.34;2050645;70;20043;-69
2022/02/28 06:20:11;;;;;;;;;;;;;;;-2.36;48.35;93772.88;2051059;70;20066;-74
2022/02/28 06:22:36;;;;;;;;;;;;;;;-2.22;47.62;93778.63;2050206;69;20088;-71
2022/02/28 06:25:03;;;;;;;;;;;;;;;-2.24;47.97;93781.16;2063917;69;20147;-71
2022/02/28 06:27:28;;;;;;;;;;;;;;;-2.46;49.58;93774.38;2051639;69;20083;-72
2022/02/28 06:29:54;;;;;;;;;;;;;;;-2.38;48.43;93778.13;2051234;69;20039;-70
2022/02/28 06:32:19;;;;;;;;;;;;;;;-2.24;47.90;93770.88;2050828;70;20089;-71
2022/02/28 06:34:45;;;;;;;;;;;;;;;-2.35;48.43;93768.09;2051192;70;20090;-70
2022/02/28 06:37:11;;;;;;;;;;;;;;;-2.28;49.14;93767.59;2064237;69;20102;-69
2022/02/28 06:39:37;;;;;;;;;;;;;;;-2.23;47.85;93775.13;2050795;69;20046;-75
2022/02/28 06:42:03;;;;;;;;;;;;;;;-2.24;48.77;93775.63;2050563;69;20504;-69
2022/02/28 06:44:30;;;;;;;;;;;;;;;-2.16;48.85;93777.38;2051312;70;20564;-69
2022/02/28 06:46:56;;;;;;;;;;;;;;;-2.24;48.86;93776.38;2051333;70;20077;-71
2022/02/28 06:49:21;;;;;;;;;;;;;;;-2.19;49.03;93783.16;2050712;69;20505;-69
2022/02/28 06:51:48;;;;;;;;;;;;;;;-2.14;49.09;93774.88;2051439;69;20093;-72
2022/02/28 06:54:14;;;;;;;;;;;;;;;-2.18;49.20;93774.38;2051162;69;20098;-73
2022/02/28 06:56:40;;;;;;;;;;;;;;;-2.12;49.35;93771.59;2051185;69;20053;-73
2022/02/28 06:59:06;;;;;;;;;;;;;;;-2.30;50.51;93773.59;2051558;70;20042;-71
2022/02/28 07:01:36;;;;;;;;;;;;;;;-2.12;50.03;93774.38;2064933;69;20062;-68
2022/02/28 07:04:04;;;;;;;;;;;;;;;-2.09;49.21;93765.84;2051336;69;20145;-74
2022/02/28 07:06:31;;;;;;;;;;;;;;;-2.17;48.75;93766.84;2051923;70;20047;-69
2022/02/28 07:08:57;;;;;;;;;;;;;;;-2.09;48.84;93754.81;2051117;69;20043;-69
2022/02/28 07:11:22;;;;;;;;;;;;;;;-2.02;48.19;93753.53;2049789;69;20061;-74
2022/02/28 07:13:48;;;;;;;;;;;;;;;-2.19;48.63;93752.81;2050850;69;20035;-71
2022/02/28 07:16:17;;;;;;;;;;;;;;;-2.37;49.29;93752.06;2061420;69;20103;-70
2022/02/28 07:18:42;;;;;;;;;;;;;;;-2.15;49.30;93756.06;2050739;70;20046;-72
2022/02/28 07:21:08;;;;;;;;;;;;;;;-2.12;49.30;93753.03;2051420;70;20401;-72
2022/02/28 07:23:33;;;;;;;;;;;;;;;-2.05;48.88;93752.53;2051264;69;20054;-72
2022/02/28 07:25:59;;;;;;;;;;;;;;;-1.89;47.48;93748.25;2049295;69;20047;-70
2022/02/28 07:28:26;;;;;;;;;;;;;;;-1.99;47.98;93749.03;2050096;70;20065;-70
2022/02/28 07:30:51;;;;;;;;;;;;;;;-1.85;47.71;93751.50;2049987;70;20083;-69
2022/02/28 07:33:16;;;;;;;;;;;;;;;-1.94;48.53;93753.78;2049359;69;20047;-70
2022/02/28 07:35:42;;;;;;;;;;;;;;;-2.14;49.26;93760.31;2049647;69;20063;-70
2022/02/28 07:38:07;;;;;;;;;;;;;;;-2.05;49.33;93757.31;2050363;69;20121;-70
2022/02/28 07:40:33;;;;;;;;;;;;;;;-1.93;49.27;93758.03;2050177;70;20142;-71
2022/02/28 07:42:58;;;;;;;;;;;;;;;-1.90;49.04;93763.31;2050847;69;20146;-73
2022/02/28 07:45:24;;;;;;;;;;;;;;;-1.92;49.94;93754.03;2061763;69;20147;-69
2022/02/28 07:47:49;;;;;;;;;;;;;;;-1.96;50.64;93754.28;2049616;69;20087;-70
2022/02/28 07:50:15;;;;;;;;;;;;;;;-1.73;49.31;93760.53;2053204;69;20046;-70
2022/02/28 07:52:40;;;;;;;;;;;;;;;-1.71;48.45;93755.22;2051249;70;20046;-68
2022/02/28 07:55:06;;;;;;;;;;;;;;;-1.83;50.19;93751.00;2051063;69;20505;-69
2022/02/28 07:57:32;;;;;;;;;;;;;;;-1.85;50.51;93756.28;2050680;69;20484;-71
2022/02/28 07:59:57;;;;;;;;;;;;;;;-1.78;49.98;93753.00;2062894;69;20161;-70
2022/02/28 08:02:24;;;;;;;;;;;;;;;-1.80;49.21;93738.94;2051370;70;20050;-70
2022/02/28 08:04:50;;;;;;;;;;;;;;;-1.83;49.37;93743.47;2064733;69;20473;-70
2022/02/28 08:07:16;;;;;;;;;;;;;;;-1.68;49.33;93745.94;2051239;70;20155;-70
2022/02/28 08:09:43;;;;;;;;;;;;;;;-1.70;48.73;93737.41;2051788;70;20110;-69
2022/02/28 08:12:09;;;;;;;;;;;;;;;-1.69;48.92;93738.19;2050718;69;20046;-69
2022/02/28 08:14:36;;;;;;;;;;;;;;;-1.65;49.04;93736.66;2050659;70;20051;-69
2022/02/28 08:17:01;;;;;;;;;;;;;;;-1.58;49.20;93733.34;2050772;70;20070;-70
2022/02/28 08:19:27;;;;;;;;;;;;;;;-1.58;49.20;93729.84;2052108;69;20045;-73
2022/02/28 08:21:52;;;;;;;;;;;;;;;-1.44;48.54;93728.78;2052559;70;20480;-71
2022/02/28 08:24:18;;;;;;;;;;;;;;;-1.36;48.40;93723.50;2052432;70;20129;-70
2022/02/28 08:26:43;;;;;;;;;;;;;;;-1.58;49.98;93725.06;2052243;70;20038;-70
2022/02/28 08:29:09;;;;;;;;;;;;;;;-0.95;49.36;93720.78;2052562;70;20217;-69
2022/02/28 08:31:34;;;;;;;;;;;;;;;-0.18;47.02;93726.28;2052516;70;20078;-69
2022/02/28 08:34:00;;;;;;;;;;;;;;;0.35;46.17;93732.31;2052678;70;20042;-75
2022/02/28 08:36:25;;;;;;;;;;;;;;;0.77;47.16;93733.59;2052565;70;20113;-72
2022/02/28 08:38:51;;;;;;;;;;;;;;;1.31;45.96;93728.41;2052641;69;20136;-78
2022/02/28 08:41:17;;;;;;;;;;;;;;;1.80;44.31;93731.72;2052588;70;20492;-77
2022/02/28 08:43:42;;;;;;;;;;;;;;;2.04;41.84;93731.56;2052684;69;20141;-71
2022/02/28 08:46:08;;;;;;;;;;;;;;;2.19;43.62;93727.53;2052510;69;20142;-76
2022/02/28 08:48:34;;;;;;;;;;;;;;;2.99;41.58;93728.31;2052553;70;20054;-79
2022/02/28 08:51:00;;;;;;;;;;;;;;;3.41;39.64;93725.66;2052526;70;20046;-71
2022/02/28 08:53:26;;;;;;;;;;;;;;;3.80;39.32;93727.53;2052701;70;20058;-71
2022/02/28 08:55:51;;;;;;;;;;;;;;;4.04;38.46;93729.28;2052424;70;20176;-70
2022/02/28 08:58:18;;;;;;;;;;;;;;;4.64;38.63;93724.72;2052646;70;20133;-69
2022/02/28 09:00:43;;;;;;;;;;;;;;;4.63;37.49;93720.44;2052512;70;20137;-70
2022/02/28 09:03:09;;;;;;;;;;;;;;;4.96;36.12;93718.78;2052475;70;20200;-71
2022/02/28 09:05:34;;;;;;;;;;;;;;;5.46;36.11;93722.19;2052442;70;20457;-71
2022/02/28 09:08:00;;;;;;;;;;;;;;;5.79;34.69;93714.81;2052447;70;20054;-76
2022/02/28 09:10:25;;;;;;;;;;;;;;;5.91;34.08;93710.38;2052307;70;20046;-72
2022/02/28 09:12:52;;;;;;;;;;;;;;;6.07;32.77;93711.91;2052478;69;20050;-76
2022/02/28 09:15:18;;;;;;;;;;;;;;;6.36;34.39;93709.69;2052608;70;20049;-77
2022/02/28 09:17:43;;;;;;;;;;;;;;;6.10;31.47;93710.81;2052518;70;20042;-76
2022/02/28 09:20:09;;;;;;;;;;;;;;;6.35;31.76;93708.19;2052468;70;20081;-72
2022/02/28 09:22:34;;;;;;;;;;;;;;;7.10;30.55;93705.09;2052311;70;20074;-72
2022/02/28 09:25:00;;;;;;;;;;;;;;;7.39;30.25;93697.94;2052291;70;20397;-71
2022/02/28 09:27:26;;;;;;;;;;;;;;;8.24;29.58;93689.78;2052386;70;20039;-71
2022/02/28 09:29:51;;;;;;;;;;;;;;;8.15;28.69;93687.59;2052334;70;20349;-71
2022/02/28 09:32:17;;;;;;;;;;;;;;;7.79;27.54;93693.63;2052522;69;20169;-77
2022/02/28 09:34:42;;;;;;;;;;;;;;;6.90;27.35;93689.31;2065381;69;20051;-70
2022/02/28 09:37:08;;;;;;;;;;;;;;;7.18;28.15;93682.69;2065340;69;20428;-70
2022/02/28 09:39:34;;;;;;;;;;;;;;;6.28;28.78;93681.00;2052274;70;20138;-71
2022/02/28 09:42:32;;;;;;;;;;;;;;;8.03;29.35;93686.56;2052383;69;20120;-70
2022/02/28 09:45:33;;;;;;;;;;;;;;;8.60;27.68;93688.59;2037882;70;20159;-71
2022/02/28 09:48:31;;;;;;;;;;;;;;;9.74;27.69;93688.69;2057144;69;20117;-72
2022/02/28 09:51:15;;;;;;;;;;;;;;;9.50;28.16;93688.22;2052555;70;20058;-71
2022/02/28 09:54:00;;;;;;;;;;;;;;;10.15;26.89;93684.91;2052543;70;20085;-71
2022/02/28 09:56:33;;;;;;;;;;;;;;;10.65;26.08;93689.44;2065261;69;20062;-71
2022/02/28 09:59:18;;;;;;;;;;;;;;;10.94;24.80;93686.69;2052472;70;20120;-70
2022/02/28 10:01:44;;;;;;;;;;;;;;;11.20;24.42;93685.84;2065301;69;20047;-71
2022/02/28 10:04:12;;;;;;;;;;;;;;;11.41;24.22;93682.47;2065302;69;20161;-71
2022/02/28 10:06:37;;;;;;;;;;;;;;;11.69;24.44;93680.97;2052323;69;20046;-71
2022/02/28 10:09:08;;;;;;;;;;;;;;;10.58;24.15;93676.22;2052325;70;20045;-71
2022/02/28 10:11:35;;;;;;;;;;;;;;;10.57;25.16;93678.28;2052196;69;20499;-71
2022/02/28 10:14:03;;;;;;;;;;;;;;;10.65;25.18;93667.66;2052246;70;20567;-69
2022/02/28 10:16:29;;;;;;;;;;;;;;;10.33;25.34;93668.00;2052272;70;20198;-71
2022/02/28 10:18:55;;;;;;;;;;;;;;;11.24;23.23;93668.50;2052223;70;20058;-73
2022/02/28 10:21:39;;;;;;;;;;;;;;;11.63;22.15;93662.84;2052353;70;20043;-74
2022/02/28 10:24:07;;;;;;;;;;;;;;;12.03;22.07;93664.28;2052317;69;20043;-70
2022/02/28 10:26:59;;;;;;;;;;;;;;;12.09;22.76;93670.34;2056140;69;20053;-71
2022/02/28 10:29:43;;;;;;;;;;;;;;;12.28;22.11;93659.03;2052588;70;20057;-70
2022/02/28 10:32:46;;;;;;;;;;;;;;;12.94;21.66;93656.44;2052377;70;20122;-71
2022/02/28 10:36:10;;;;;;;;;;;;;;;11.69;22.23;93652.75;2052316;69;20069;-71
2022/02/28 10:39:10;;;;;;;;;;;;;;;13.52;22.40;93649.69;2049035;70;20124;-71
2022/02/28 10:41:36;;;;;;;;;;;;;;;13.67;21.45;93640.00;2052209;70;20127;-72
2022/02/28 10:44:04;;;;;;;;;;;;;;;12.63;21.82;93641.59;2052618;70;20392;-68
2022/02/28 10:46:31;;;;;;;;;;;;;;;13.81;22.31;93635.25;2052268;70;20432;-71
2022/02/28 10:49:07;;;;;;;;;;;;;;;14.24;20.21;93632.25;2052281;70;20503;-72
2022/02/28 10:52:02;;;;;;;;;;;;;;;14.27;20.40;93628.22;2052244;70;20038;-69
2022/02/28 10:54:29;;;;;;;;;;;;;;;14.16;20.02;93634.59;2062257;69;20050;-69
2022/02/28 10:56:58;;;;;;;;;;;;;;;13.43;19.58;93619.38;2052118;70;20130;-69
2022/02/28 10:59:25;;;;;;;;;;;;;;;14.89;19.92;93621.31;2052192;70;20043;-71
2022/02/28 11:01:51;;;;;;;;;;;;;;;16.04;18.68;93623.69;2052193;70;20046;-70
2022/02/28 11:04:27;;;;;;;;;;;;;;;16.02;18.40;93615.78;2052168;70;20052;-72
2022/02/28 11:06:53;;;;;;;;;;;;;;;15.91;18.05;93618.69;2052260;70;20147;-70
2022/02/28 11:09:28;;;;;;;;;;;;;;;16.91;17.53;93609.84;2065232;69;20108;-70
2022/02/28 11:11:56;;;;;;;;;;;;;;;16.28;17.49;93612.91;2052104;69;20222;-75
2022/02/28 11:14:22;;;;;;;;;;;;;;;17.82;17.59;93604.41;2052293;70;20625;-71
2022/02/28 11:16:48;;;;;;;;;;;;;;;18.82;17.17;93609.06;2052309;70;20054;-72
2022/02/28 11:19:13;;;;;;;;;;;;;;;19.42;16.24;93599.56;2052226;70;20119;-73
2022/02/28 11:21:39;;;;;;;;;;;;;;;20.64;15.39;93605.88;2052257;70;20408;-74
2022/02/28 11:24:05;;;;;;;;;;;;;;;20.23;15.36;93605.03;2051552;69;20417;-70
2022/02/28 11:26:31;;;;;;;;;;;;;;;21.36;14.79;93603.50;2052326;69;20494;-71
2022/02/28 11:28:58;;;;;;;;;;;;;;;19.42;15.98;93587.41;2052570;70;20515;-73
2022/02/28 11:31:24;;;;;;;;;;;;;;;22.23;14.22;93594.97;2052597;70;20199;-72
2022/02/28 11:33:51;;;;;;;;;;;;;;;21.97;14.60;93591.22;2052645;70;20149;-72
2022/02/28 11:36:16;;;;;;;;;;;;;;;20.94;15.16;93591.97;2052614;70;20108;-71
2022/02/28 11:38:43;;;;;;;;;;;;;;;21.43;15.01;93591.59;2052494;70;20576;-72
2022/02/28 11:41:12;;;;;;;;;;;;;;;24.26;13.84;93584.06;2065463;69;20432;-72
2022/02/28 11:43:45;;;;;;;;;;;;;;;26.19;13.16;93586.53;2052541;70;20046;-74
2022/02/28 11:46:12;;;;;;;;;;;;;;;24.24;13.43;93579.00;2052570;70;20078;-76
2022/02/28 11:48:40;;;;;;;;;;;;;;;22.10;14.06;93573.00;2052539;69;20153;-75
2022/02/28 11:51:06;;;;;;;;;;;;;;;22.36;13.89;93560.91;2052628;70;20538;-74
2022/02/28 11:53:38;;;;;;;;;;;;;;;23.40;13.97;93566.78;2052549;70;20457;-74
2022/02/28 11:56:35;;;;;;;;;;;;;;;22.94;13.80;93561.94;2065228;69;20046;-70
2022/02/28 11:59:02;;;;;;;;;;;;;;;19.95;14.43;93550.34;2049707;70;20066;-73
2022/02/28 12:01:30;;;;;;;;;;;;;;;21.40;14.44;93547.09;2052394;70;20050;-73
2022/02/28 12:04:07;;;;;;;;;;;;;;;21.40;14.44;93544.25;2052564;70;20111;-72
2022/02/28 12:06:51;;;;;;;;;;;;;;;23.31;13.62;93539.97;2052426;70;20517;-71
2022/02/28 12:12:18;;;;;;;;;;;;;;;21.32;14.10;93538.22;2052599;70;20076;-72
2022/02/28 12:15:03;;;;;;;;;;;;;;;23.70;12.43;93544.63;2052476;70;20564;-71
2022/02/28 12:17:44;;;;;;;;;;;;;;;22.36;13.35;93532.22;2050079;70;20047;-75
2022/02/28 12:20:19;;;;;;;;;;;;;;;25.90;11.87;93533.41;2052462;70;20054;-72
2022/02/28 12:22:54;;;;;;;;;;;;;;;27.61;11.37;93541.50;2052503;70;20046;-70
2022/02/28 12:25:32;;;;;;;;;;;;;;;27.77;10.99;93535.22;2052432;70;20142;-71
2022/02/28 12:28:06;;;;;;;;;;;;;;;27.66;10.83;93528.56;2052474;70;20503;-70
2022/02/28 12:30:38;;;;;;;;;;;;;;;25.96;10.65;93525.56;2052494;69;20138;-71
2022/02/28 12:33:04;;;;;;;;;;;;;;;26.64;11.32;93521.56;2052494;70;20051;-70
2022/02/28 12:35:39;;;;;;;;;;;;;;;27.77;9.38;93518.56;2052470;70;20119;-70
2022/02/28 12:38:05;;;;;;;;;;;;;;;25.14;10.63;93519.78;2052211;70;20130;-71
2022/02/28 12:40:30;;;;;;;;;;;;;;;24.47;11.82;93519.09;2052375;70;20203;-71
2022/02/28 12:42:56;;;;;;;;;;;;;;;23.43;10.82;93519.47;2052439;69;20042;-72
2022/02/28 12:45:22;;;;;;;;;;;;;;;23.48;11.84;93503.78;2052482;70;20478;-73
2022/02/28 12:47:48;;;;;;;;;;;;;;;23.66;12.71;93506.41;2052433;69;20049;-71
2022/02/28 12:50:16;;;;;;;;;;;;;;;23.75;11.85;93502.31;2065325;69;20068;-72
2022/02/28 12:52:49;;;;;;;;;;;;;;;24.15;12.92;93507.56;2052336;70;20534;-74
2022/02/28 12:55:16;;;;;;;;;;;;;;;21.61;12.82;93499.78;2052322;70;20042;-71
2022/02/28 12:57:41;;;;;;;;;;;;;;;20.39;13.55;93496.28;2052462;70;20042;-72